createdAt,value
2018-05-27T00:00:34.405Z,13.87
2018-05-27T00:03:00.286Z,12.37
2018-05-27T00:05:26.256Z,13.00
2018-05-27T00:07:52.132Z,13.70
2018-05-27T00:10:18.040Z,13.00
2018-05-27T00:12:43.986Z,12.37
2018-05-27T00:15:09.876Z,12.93
2018-05-27T00:17:35.743Z,12.57
2018-05-27T00:20:01.662Z,11.73
2018-05-27T00:22:27.579Z,13.23
2018-05-27T00:24:53.459Z,13.17
2018-05-27T00:27:19.363Z,13.00
2018-05-27T00:29:45.240Z,13.43
2018-05-27T00:32:11.127Z,13.43
2018-05-27T00:34:37.072Z,12.77
2018-05-27T00:37:02.971Z,13.67
2018-05-27T00:39:28.877Z,13.47
2018-05-27T00:41:54.819Z,12.50
2018-05-27T00:44:20.732Z,13.43
2018-05-27T00:46:46.650Z,13.63
2018-05-27T00:49:12.584Z,12.70
2018-05-27T00:51:38.457Z,14.10
2018-05-27T00:54:04.480Z,12.67
2018-05-27T00:56:30.400Z,13.10
2018-05-27T00:58:56.312Z,13.70
2018-05-27T01:01:22.223Z,13.20
2018-05-27T01:03:48.164Z,12.77
2018-05-27T01:06:14.070Z,13.27
2018-05-27T01:08:39.968Z,12.77
2018-05-27T01:11:05.896Z,11.77
2018-05-27T01:13:31.819Z,11.90
2018-05-27T01:15:57.743Z,11.57
2018-05-27T01:18:23.694Z,11.83
2018-05-27T01:20:49.571Z,12.07
2018-05-27T01:23:15.461Z,13.30
2018-05-27T01:25:41.451Z,12.90
2018-05-27T01:28:07.348Z,12.83
2018-05-27T01:30:33.221Z,13.10
2018-05-27T01:32:59.149Z,13.17
2018-05-27T01:35:25.080Z,12.60
2018-05-27T01:37:50.963Z,13.53
2018-05-27T01:40:16.976Z,13.33
2018-05-27T01:42:42.860Z,13.30
2018-05-27T01:45:08.783Z,13.83
2018-05-27T01:47:34.732Z,13.07
2018-05-27T01:50:00.628Z,12.73
2018-05-27T01:52:26.547Z,13.60
2018-05-27T01:54:52.496Z,14.70
2018-05-27T01:57:18.395Z,13.47
2018-05-27T01:59:44.360Z,14.57
2018-05-27T02:02:10.296Z,14.47
2018-05-27T02:04:36.196Z,14.80
2018-05-27T02:07:02.722Z,14.00
2018-05-27T02:09:28.664Z,14.73
2018-05-27T02:11:54.560Z,14.57
2018-05-27T02:14:20.459Z,15.17
2018-05-27T02:16:46.381Z,14.87
2018-05-27T02:19:12.296Z,13.43
2018-05-27T02:21:38.185Z,13.70
2018-05-27T02:24:04.135Z,14.67
2018-05-27T02:26:30.011Z,14.20
2018-05-27T02:28:56.752Z,14.37
2018-05-27T02:31:22.708Z,13.83
2018-05-27T02:33:48.597Z,13.50
2018-05-27T02:36:14.494Z,15.37
2018-05-27T02:38:40.461Z,14.67
2018-05-27T02:41:06.343Z,15.33
2018-05-27T02:43:32.251Z,14.47
2018-05-27T02:45:58.706Z,14.07
2018-05-27T02:48:24.588Z,15.40
2018-05-27T02:50:50.486Z,15.30
2018-05-27T02:53:16.496Z,16.53
2018-05-27T02:55:42.396Z,17.30
2018-05-27T02:58:08.292Z,16.17
2018-05-27T03:00:34.374Z,15.17
2018-05-27T03:03:00.269Z,16.70
2018-05-27T03:05:26.256Z,17.70
2018-05-27T03:07:52.204Z,17.87
2018-05-27T03:10:18.120Z,19.43
2018-05-27T03:12:44.083Z,17.93
2018-05-27T03:15:10.042Z,19.67
2018-05-27T03:17:35.940Z,19.07
2018-05-27T03:20:01.880Z,20.37
2018-05-27T03:22:27.911Z,20.93
2018-05-27T03:24:53.808Z,20.53
2018-05-27T03:27:19.783Z,20.77
2018-05-27T03:29:45.814Z,19.83
2018-05-27T03:32:11.699Z,20.87
2018-05-27T03:34:37.584Z,21.70
2018-05-27T03:37:03.588Z,22.80
2018-05-27T03:39:29.543Z,23.00
2018-05-27T03:41:55.447Z,21.60
2018-05-27T03:44:21.366Z,22.90
2018-05-27T03:46:47.330Z,21.20
2018-05-27T03:49:13.205Z,23.30
2018-05-27T03:51:39.167Z,22.27
2018-05-27T03:54:05.063Z,22.23
2018-05-27T03:56:30.943Z,21.70
2018-05-27T03:58:56.876Z,22.27
2018-05-27T04:01:22.836Z,20.50
2018-05-27T04:03:54.586Z,21.93
2018-05-27T04:06:32.941Z,21.73
2018-05-27T04:08:58.823Z,21.67
2018-05-27T04:11:24.741Z,22.23
2018-05-27T04:13:50.664Z,19.80
2018-05-27T04:16:16.555Z,20.53
2018-05-27T04:18:42.521Z,21.70
2018-05-27T04:21:08.479Z,22.90
2018-05-27T04:23:34.372Z,21.23
2018-05-27T04:26:00.268Z,21.90
2018-05-27T04:28:26.307Z,22.40
2018-05-27T04:30:52.215Z,23.37
2018-05-27T04:33:18.099Z,23.27
2018-05-27T04:35:44.026Z,23.73
2018-05-27T04:38:09.916Z,22.57
2018-05-27T04:40:35.882Z,21.87
2018-05-27T04:43:01.831Z,21.77
2018-05-27T04:45:27.754Z,22.50
2018-05-27T04:47:53.641Z,22.27
2018-05-27T04:50:19.632Z,20.10
2018-05-27T04:52:45.547Z,22.73
2018-05-27T04:55:11.470Z,21.47
2018-05-27T04:57:37.549Z,19.60
2018-05-27T05:00:04.479Z,21.27
2018-05-27T05:02:30.427Z,19.77
2018-05-27T05:04:56.368Z,20.70
2018-05-27T05:07:22.252Z,19.00
2018-05-27T05:09:48.215Z,19.37
2018-05-27T05:12:14.140Z,20.57
2018-05-27T05:14:40.104Z,20.07
2018-05-27T05:17:05.992Z,18.73
2018-05-27T05:19:31.915Z,20.33
2018-05-27T05:21:57.807Z,18.63
2018-05-27T05:24:23.711Z,19.63
2018-05-27T05:26:49.796Z,18.60
2018-05-27T05:29:15.693Z,19.47
2018-05-27T05:31:41.583Z,19.00
2018-05-27T05:34:07.600Z,19.43
2018-05-27T05:36:33.523Z,18.13
2018-05-27T05:38:59.477Z,20.30
2018-05-27T05:41:25.467Z,18.53
2018-05-27T05:43:51.343Z,18.27
2018-05-27T05:46:18.156Z,18.57
2018-05-27T05:48:44.097Z,18.77
2018-05-27T05:51:09.995Z,17.60
2018-05-27T05:53:36.484Z,19.00
2018-05-27T05:56:02.443Z,18.67
2018-05-27T05:58:28.323Z,17.57
2018-05-27T06:00:54.217Z,17.90
2018-05-27T06:03:20.271Z,17.50
2018-05-27T06:05:46.263Z,18.50
2018-05-27T06:08:12.153Z,18.23
2018-05-27T06:10:38.155Z,17.97
2018-05-27T06:13:04.088Z,16.83
2018-05-27T06:15:30.074Z,17.67
2018-05-27T06:17:56.101Z,17.67
2018-05-27T06:20:22.067Z,17.47
2018-05-27T06:22:48.063Z,16.60
2018-05-27T06:25:14.028Z,17.40
2018-05-27T06:27:40.401Z,17.73
2018-05-27T06:30:06.382Z,16.77
2018-05-27T06:32:32.309Z,16.40
2018-05-27T06:34:58.225Z,16.17
2018-05-27T06:37:24.165Z,17.40
2018-05-27T06:39:50.182Z,16.53
2018-05-27T06:42:16.188Z,15.50
2018-05-27T06:44:42.080Z,15.93
2018-05-27T06:47:08.320Z,15.03
2018-05-27T06:49:34.221Z,14.23
2018-05-27T06:52:00.099Z,14.07
2018-05-27T06:54:26.151Z,13.87
2018-05-27T06:56:52.051Z,12.40
2018-05-27T06:59:17.942Z,12.37
2018-05-27T07:01:43.867Z,12.73
2018-05-27T07:04:09.830Z,12.27
2018-05-27T07:06:36.625Z,11.50
2018-05-27T07:09:02.675Z,12.60
2018-05-27T07:11:28.583Z,11.40
2018-05-27T07:13:54.507Z,11.67
2018-05-27T07:16:20.457Z,11.63
2018-05-27T07:18:46.411Z,11.40
2018-05-27T07:21:12.298Z,11.40
2018-05-27T07:23:38.280Z,10.53
2018-05-27T07:26:04.159Z,10.67
2018-05-27T07:28:30.096Z,10.73
2018-05-27T07:30:56.115Z,10.40
2018-05-27T07:33:22.918Z,10.03
2018-05-27T07:35:48.811Z,9.53
2018-05-27T07:38:14.748Z,9.20
2018-05-27T07:40:40.672Z,9.43
2018-05-27T07:43:06.699Z,8.87
2018-05-27T07:45:32.700Z,8.60
2018-05-27T07:47:58.572Z,8.43
2018-05-27T07:50:25.346Z,8.53
2018-05-27T07:52:51.293Z,8.63
2018-05-27T07:55:20.720Z,8.67
2018-05-27T07:57:47.434Z,8.53
2018-05-27T08:00:13.512Z,7.80
2018-05-27T08:02:39.389Z,8.23
2018-05-27T08:05:05.361Z,7.87
2018-05-27T08:07:31.403Z,8.47
2018-05-27T08:09:57.275Z,8.60
2018-05-27T08:12:23.180Z,7.87
2018-05-27T08:14:49.107Z,8.17
2018-05-27T08:17:14.968Z,8.27
2018-05-27T08:19:40.920Z,8.53
2018-05-27T08:22:06.847Z,7.50
2018-05-27T08:24:32.741Z,8.50
2018-05-27T08:26:58.612Z,7.83
2018-05-27T08:29:25.426Z,8.30
2018-05-27T08:31:51.335Z,7.33
2018-05-27T08:34:17.204Z,8.17
2018-05-27T08:36:43.211Z,7.50
2018-05-27T08:39:09.075Z,8.07
2018-05-27T08:41:34.954Z,7.77
2018-05-27T08:44:00.899Z,8.13
2018-05-27T08:46:26.804Z,7.80
2018-05-27T08:48:52.763Z,7.60
2018-05-27T08:51:18.671Z,7.70
2018-05-27T08:53:45.564Z,7.73
2018-05-27T08:56:11.476Z,7.70
2018-05-27T08:58:37.826Z,7.40
2018-05-27T09:01:04.635Z,7.70
2018-05-27T09:03:30.539Z,8.13
2018-05-27T09:05:56.467Z,7.37
2018-05-27T09:08:22.340Z,7.57
2018-05-27T09:10:48.315Z,7.20
2018-05-27T09:13:14.252Z,7.60
2018-05-27T09:15:40.152Z,7.70
2018-05-27T09:18:06.034Z,7.90
2018-05-27T09:20:32.775Z,7.97
2018-05-27T09:22:58.742Z,7.40
2018-05-27T09:25:24.631Z,7.30
2018-05-27T09:27:50.665Z,7.20
2018-05-27T09:30:16.544Z,7.33
2018-05-27T09:32:42.425Z,7.07
2018-05-27T09:35:08.426Z,6.97
2018-05-27T09:37:35.177Z,6.70
2018-05-27T09:40:01.060Z,7.43
2018-05-27T09:42:27.016Z,7.10
2018-05-27T09:44:52.917Z,7.20
2018-05-27T09:47:18.895Z,7.40
2018-05-27T09:49:44.856Z,7.10
2018-05-27T09:52:10.742Z,6.90
2018-05-27T09:54:36.677Z,7.30
2018-05-27T09:57:02.632Z,7.20
2018-05-27T09:59:28.595Z,6.57
2018-05-27T10:01:54.559Z,6.83
2018-05-27T10:04:20.504Z,6.30
2018-05-27T10:06:46.382Z,6.90
2018-05-27T10:09:12.353Z,6.93
2018-05-27T10:11:38.765Z,6.23
2018-05-27T10:14:05.459Z,6.80
2018-05-27T10:16:32.170Z,6.40
2018-05-27T10:18:58.209Z,7.50
2018-05-27T10:21:24.071Z,7.30
2018-05-27T10:23:50.091Z,6.93
2018-05-27T10:26:16.015Z,7.20
2018-05-27T10:28:41.892Z,6.60
2018-05-27T10:31:07.810Z,7.23
2018-05-27T10:33:33.779Z,7.10
2018-05-27T10:35:59.757Z,6.67
2018-05-27T10:38:25.649Z,6.83
2018-05-27T10:40:51.570Z,7.13
2018-05-27T10:43:17.545Z,6.73
2018-05-27T10:45:43.417Z,7.43
2018-05-27T10:48:09.433Z,7.00
2018-05-27T10:50:36.264Z,7.30
2018-05-27T10:53:02.187Z,7.22
2018-05-27T10:55:28.165Z,6.40
2018-05-27T10:57:54.056Z,6.50
2018-05-27T11:00:20.038Z,6.60
2018-05-27T11:02:46.007Z,6.80
2018-05-27T11:05:11.942Z,6.65
2018-05-27T11:07:38.196Z,6.53
2018-05-27T11:10:04.135Z,6.87
2018-05-27T11:12:30.107Z,6.70
2018-05-27T11:14:56.016Z,6.65
2018-05-27T11:17:23.059Z,6.57
2018-05-27T11:19:49.847Z,6.28
2018-05-27T11:22:15.821Z,6.70
2018-05-27T11:24:41.877Z,6.85
2018-05-27T11:27:07.754Z,6.82
2018-05-27T11:29:34.198Z,6.60
2018-05-27T11:32:00.175Z,6.30
2018-05-27T11:34:26.067Z,6.90
2018-05-27T11:36:52.048Z,6.90
2018-05-27T11:39:18.146Z,6.50
2018-05-27T11:41:44.862Z,6.63
2018-05-27T11:44:10.795Z,6.23
2018-05-27T11:46:36.727Z,6.70
2018-05-27T11:49:02.731Z,7.37
2018-05-27T11:51:28.615Z,7.23
2018-05-27T11:53:54.586Z,6.53
2018-05-27T11:56:20.536Z,7.33
2018-05-27T11:58:46.427Z,6.47
2018-05-27T12:01:12.442Z,5.17
2018-05-27T12:03:38.361Z,5.50
2018-05-27T12:06:04.280Z,5.37
2018-05-27T12:08:30.327Z,5.07
2018-05-27T12:10:56.236Z,4.43
2018-05-27T12:13:23.062Z,4.40
2018-05-27T12:15:49.026Z,3.87
2018-05-27T12:18:14.905Z,4.47
2018-05-27T12:20:41.080Z,4.10
2018-05-27T12:23:07.012Z,3.60
2018-05-27T12:25:32.977Z,3.83
2018-05-27T12:27:58.869Z,3.50
2018-05-27T12:30:24.815Z,3.57
2018-05-27T12:32:50.809Z,3.80
2018-05-27T12:35:16.726Z,3.70
2018-05-27T12:37:42.739Z,3.50
2018-05-27T12:40:08.613Z,4.03
2018-05-27T12:42:34.475Z,3.80
2018-05-27T12:45:00.434Z,4.13
2018-05-27T12:47:26.325Z,4.37
2018-05-27T12:49:52.239Z,4.00
2018-05-27T12:52:18.164Z,4.40
2018-05-27T12:54:44.059Z,4.53
2018-05-27T12:57:09.956Z,4.70
2018-05-27T12:59:35.909Z,4.80
2018-05-27T13:02:01.820Z,5.63
2018-05-27T13:04:27.704Z,5.13
2018-05-27T13:06:53.729Z,5.10
2018-05-27T13:09:19.641Z,5.83
2018-05-27T13:11:45.562Z,5.30
2018-05-27T13:14:11.463Z,4.70
2018-05-27T13:16:37.794Z,5.13
2018-05-27T13:19:03.600Z,4.80
2018-05-27T13:21:29.527Z,3.90
2018-05-27T13:23:55.421Z,4.20
2018-05-27T13:26:21.375Z,4.50
2018-05-27T13:28:47.328Z,4.30
2018-05-27T13:31:13.205Z,4.50
2018-05-27T13:33:40.108Z,4.63
2018-05-27T13:36:06.147Z,4.70
2018-05-27T13:38:32.120Z,4.37
2018-05-27T13:40:57.995Z,4.00
2018-05-27T13:43:23.932Z,4.27
2018-05-27T13:45:49.809Z,4.53
2018-05-27T13:48:15.703Z,4.90
2018-05-27T13:50:41.657Z,4.90
2018-05-27T13:53:07.529Z,5.30
2018-05-27T13:55:33.399Z,5.10
2018-05-27T13:57:59.329Z,5.23
2018-05-27T14:00:25.219Z,5.17
2018-05-27T14:02:51.610Z,5.23
2018-05-27T14:05:17.551Z,5.30
2018-05-27T14:07:43.455Z,5.10
2018-05-27T14:10:09.469Z,5.70
2018-05-27T14:12:35.394Z,5.30
2018-05-27T14:15:01.319Z,5.00
2018-05-27T14:17:27.245Z,5.23
2018-05-27T14:19:53.220Z,6.00
2018-05-27T14:22:19.150Z,5.30
2018-05-27T14:24:45.032Z,6.07
2018-05-27T14:27:10.951Z,6.70
2018-05-27T14:29:36.824Z,6.90
2018-05-27T14:32:02.688Z,7.90
2018-05-27T14:34:28.686Z,6.37
2018-05-27T14:36:54.681Z,6.23
2018-05-27T14:39:20.641Z,5.93
2018-05-27T14:41:46.579Z,5.50
2018-05-27T14:44:12.451Z,5.37
2018-05-27T14:46:39.199Z,5.30
2018-05-27T14:49:05.129Z,5.23
2018-05-27T14:51:31.032Z,4.67
2018-05-27T14:53:56.923Z,4.80
2018-05-27T14:56:22.995Z,4.80
2018-05-27T14:58:49.967Z,4.63
2018-05-27T15:01:15.935Z,4.70
2018-05-27T15:03:41.882Z,5.10
2018-05-27T15:06:07.788Z,13.27
2018-05-27T15:08:33.704Z,5.60
2018-05-27T15:10:59.641Z,5.20
2018-05-27T15:13:25.532Z,5.55
2018-05-27T15:15:51.409Z,5.87
2018-05-27T15:18:17.370Z,9.80
2018-05-27T15:20:43.258Z,5.90
2018-05-27T15:23:09.153Z,5.80
2018-05-27T15:25:35.098Z,6.10
2018-05-27T15:28:01.089Z,5.90
2018-05-27T15:30:26.991Z,6.43
2018-05-27T15:32:52.944Z,5.70
2018-05-27T15:35:18.852Z,6.37
2018-05-27T15:37:44.811Z,6.53
2018-05-27T15:40:10.780Z,6.83
2018-05-27T15:42:36.687Z,6.57
2018-05-27T15:45:02.608Z,6.37
2018-05-27T15:47:28.539Z,6.60
2018-05-27T15:49:54.475Z,6.33
2018-05-27T15:52:20.363Z,6.93
2018-05-27T15:54:46.317Z,6.53
2018-05-27T15:57:12.219Z,6.30
2018-05-27T15:59:38.135Z,5.97
2018-05-27T16:02:04.051Z,6.43
2018-05-27T16:04:29.945Z,7.57
2018-05-27T16:06:55.892Z,6.90
2018-05-27T16:09:21.831Z,6.53
2018-05-27T16:11:47.790Z,6.50
2018-05-27T16:14:13.676Z,6.93
2018-05-27T16:16:39.667Z,6.23
2018-05-27T16:19:05.582Z,6.23
2018-05-27T16:21:31.579Z,6.23
2018-05-27T16:23:57.533Z,6.30
2018-05-27T16:26:23.443Z,6.30
2018-05-27T16:28:49.319Z,6.67
2018-05-27T16:31:15.362Z,6.97
2018-05-27T16:33:41.266Z,6.80
2018-05-27T16:36:07.204Z,6.80
2018-05-27T16:38:33.136Z,6.90
2018-05-27T16:40:59.084Z,7.70
2018-05-27T16:43:24.970Z,7.23
2018-05-27T16:45:51.016Z,7.30
2018-05-27T16:48:17.759Z,6.87
2018-05-27T16:50:43.698Z,7.03
2018-05-27T16:53:09.620Z,6.60
2018-05-27T16:55:35.625Z,7.40
2018-05-27T16:58:01.508Z,6.70
2018-05-27T17:00:27.469Z,6.90
2018-05-27T17:02:53.352Z,7.00
2018-05-27T17:05:19.247Z,7.17
2018-05-27T17:07:45.159Z,7.50
2018-05-27T17:10:11.029Z,7.53
2018-05-27T17:12:36.951Z,7.33
2018-05-27T17:15:02.932Z,6.80
2018-05-27T17:17:28.815Z,7.30
2018-05-27T17:19:54.708Z,6.63
2018-05-27T17:22:20.730Z,7.47
2018-05-27T17:24:46.672Z,7.07
2018-05-27T17:27:12.548Z,7.53
2018-05-27T17:29:38.504Z,7.53
2018-05-27T17:32:04.412Z,7.80
2018-05-27T17:34:30.274Z,7.90
2018-05-27T17:36:56.284Z,6.83
2018-05-27T17:39:22.176Z,7.47
2018-05-27T17:41:48.143Z,6.70
2018-05-27T17:44:14.097Z,6.80
2018-05-27T17:46:40.107Z,6.60
2018-05-27T17:49:05.969Z,6.93
2018-05-27T17:51:31.900Z,6.43
2018-05-27T17:53:57.855Z,6.97
2018-05-27T17:56:23.809Z,7.03
2018-05-27T17:58:49.753Z,6.37
2018-05-27T18:01:15.628Z,6.47
2018-05-27T18:03:41.556Z,6.50
2018-05-27T18:06:08.639Z,6.73
2018-05-27T18:08:34.539Z,7.13
2018-05-27T18:11:00.508Z,7.43
2018-05-27T18:13:26.455Z,6.90
2018-05-27T18:15:52.415Z,7.63
2018-05-27T18:18:19.256Z,7.07
2018-05-27T18:20:45.184Z,7.47
2018-05-27T18:23:11.104Z,6.93
2018-05-27T18:25:37.043Z,7.83
2018-05-27T18:28:03.173Z,7.27
2018-05-27T18:30:29.175Z,8.00
2018-05-27T18:32:55.909Z,7.97
2018-05-27T18:35:21.838Z,7.80
2018-05-27T18:37:47.827Z,8.17
2018-05-27T18:40:13.698Z,7.97
2018-05-27T18:42:39.730Z,8.50
2018-05-27T18:45:05.616Z,8.43
2018-05-27T18:47:31.511Z,8.47
2018-05-27T18:49:57.423Z,8.83
2018-05-27T18:52:23.378Z,8.10
2018-05-27T18:54:49.434Z,8.67
2018-05-27T18:57:15.440Z,8.47
2018-05-27T18:59:41.307Z,8.63
2018-05-27T19:02:07.212Z,8.27
2018-05-27T19:04:33.734Z,8.20
2018-05-27T19:06:59.699Z,8.70
2018-05-27T19:09:25.797Z,9.53
2018-05-27T19:11:52.336Z,9.27
2018-05-27T19:14:18.373Z,9.37
2018-05-27T19:16:44.751Z,9.30
2018-05-27T19:19:10.909Z,10.27
2018-05-27T19:21:38.025Z,9.00
2018-05-27T19:24:03.918Z,9.53
2018-05-27T19:26:30.469Z,9.50
2018-05-27T19:28:56.371Z,10.27
2018-05-27T19:31:22.629Z,9.47
2018-05-27T19:33:48.580Z,9.73
2018-05-27T19:36:14.606Z,10.03
2018-05-27T19:38:40.526Z,9.90
2018-05-27T19:41:06.468Z,10.73
2018-05-27T19:43:32.394Z,10.13
2018-05-27T19:45:58.589Z,9.90
2018-05-27T19:48:24.518Z,10.33
2018-05-27T19:50:50.423Z,11.10
2018-05-27T19:53:16.323Z,10.73
2018-05-27T19:55:42.236Z,10.43
2018-05-27T19:58:08.317Z,10.63
2018-05-27T20:00:34.508Z,10.57
2018-05-27T20:03:00.461Z,10.70
2018-05-27T20:05:26.418Z,10.50
2018-05-27T20:07:52.310Z,10.40
2018-05-27T20:10:18.279Z,10.43
2018-05-27T20:12:44.175Z,10.30
2018-05-27T20:15:10.108Z,10.30
2018-05-27T20:17:36.027Z,10.43
2018-05-27T20:20:02.004Z,10.60
2018-05-27T20:22:27.918Z,10.63
2018-05-27T20:24:53.854Z,10.80
2018-05-27T20:27:19.840Z,10.90
2018-05-27T20:29:45.715Z,10.53
2018-05-27T20:32:11.739Z,10.73
2018-05-27T20:34:37.607Z,10.33
2018-05-27T20:37:03.784Z,9.57
2018-05-27T20:39:29.720Z,9.97
2018-05-27T20:41:55.633Z,9.77
2018-05-27T20:44:21.603Z,9.37
2018-05-27T20:46:47.583Z,8.93
2018-05-27T20:49:13.460Z,9.23
2018-05-27T20:51:39.428Z,8.80
2018-05-27T20:54:05.398Z,9.30
2018-05-27T20:56:31.460Z,9.20
2018-05-27T20:58:57.368Z,9.17
2018-05-27T21:01:23.372Z,8.97
2018-05-27T21:03:49.287Z,9.10
2018-05-27T21:06:15.274Z,9.40
2018-05-27T21:08:41.356Z,8.67
2018-05-27T21:11:07.270Z,8.63
2018-05-27T21:13:33.176Z,8.83
2018-05-27T21:15:59.097Z,9.27
2018-05-27T21:18:24.963Z,8.13
2018-05-27T21:20:50.941Z,8.60
2018-05-27T21:23:16.879Z,8.27
2018-05-27T21:25:42.815Z,9.40
2018-05-27T21:28:08.696Z,8.73
2018-05-27T21:30:34.664Z,8.80
2018-05-27T21:33:00.619Z,8.63
2018-05-27T21:35:26.571Z,8.97
2018-05-27T21:37:52.500Z,9.20
2018-05-27T21:40:18.401Z,8.90
2018-05-27T21:42:44.285Z,9.57
2018-05-27T21:45:10.340Z,9.10
2018-05-27T21:47:36.288Z,9.60
2018-05-27T21:50:02.195Z,8.80
2018-05-27T21:52:28.124Z,9.60
2018-05-27T21:54:54.095Z,9.30
2018-05-27T21:57:20.084Z,9.77
2018-05-27T21:59:46.011Z,9.30
2018-05-27T22:02:11.891Z,9.90
2018-05-27T22:04:37.802Z,9.43
2018-05-27T22:07:03.755Z,10.10
2018-05-27T22:09:30.657Z,9.77
2018-05-27T22:11:56.552Z,10.33
2018-05-27T22:14:22.477Z,10.83
2018-05-27T22:16:48.380Z,9.80
2018-05-27T22:19:14.274Z,10.10
2018-05-27T22:21:40.307Z,9.73
2018-05-27T22:24:06.170Z,9.97
2018-05-27T22:26:32.090Z,10.57
2018-05-27T22:28:58.082Z,10.13
2018-05-27T22:31:24.058Z,10.57
2018-05-27T22:33:50.078Z,10.80
2018-05-27T22:36:16.022Z,9.97
2018-05-27T22:38:41.920Z,10.83
2018-05-27T22:41:07.833Z,11.00
2018-05-27T22:43:33.759Z,11.20
2018-05-27T22:45:59.715Z,10.87
2018-05-27T22:48:25.627Z,11.77
2018-05-27T22:50:51.607Z,11.33
2018-05-27T22:53:17.462Z,11.40
2018-05-27T22:55:43.351Z,11.00
2018-05-27T22:58:10.267Z,12.17
2018-05-27T23:00:36.180Z,11.90
2018-05-27T23:03:02.060Z,11.80
2018-05-27T23:05:28.010Z,12.07
2018-05-27T23:07:53.882Z,11.33
2018-05-27T23:10:19.836Z,11.90
2018-05-27T23:12:45.760Z,11.80
2018-05-27T23:15:11.688Z,11.70
2018-05-27T23:17:37.583Z,12.10
2018-05-27T23:20:03.520Z,11.40
2018-05-27T23:22:29.476Z,11.87
2018-05-27T23:24:55.420Z,13.00
2018-05-27T23:27:21.713Z,12.97
2018-05-27T23:29:47.674Z,12.50
2018-05-27T23:32:13.559Z,12.00
2018-05-27T23:34:39.599Z,12.67
2018-05-27T23:37:05.521Z,12.60
2018-05-27T23:39:31.467Z,12.47
2018-05-27T23:41:57.422Z,13.20
2018-05-27T23:44:23.313Z,13.10
2018-05-27T23:46:49.293Z,13.37
2018-05-27T23:49:15.248Z,12.93
2018-05-27T23:51:41.203Z,13.23
2018-05-27T23:54:07.105Z,13.73
2018-05-27T23:56:33.060Z,13.33
2018-05-27T23:58:59.071Z,13.50
